sensor_id;sensor_type;location;lat;lon;timestamp;temperature;humidity
15355;DHT22;7777;52.254;9.618;2023-02-13T00:01:35;8.30;99.90
15355;DHT22;7777;52.254;9.618;2023-02-13T00:04:00;8.30;99.90
15355;DHT22;7777;52.254;9.618;2023-02-13T00:06:26;8.30;99.90
15355;DHT22;7777;52.254;9.618;2023-02-13T00:08:52;8.30;99.90
15355;DHT22;7777;52.254;9.618;2023-02-13T00:11:18;8.30;99.90
15355;DHT22;7777;52.254;9.618;2023-02-13T00:13:45;8.20;99.90
15355;DHT22;7777;52.254;9.618;2023-02-13T00:16:10;8.30;99.90
15355;DHT22;7777;52.254;9.618;2023-02-13T00:18:37;8.20;99.90
15355;DHT22;7777;52.254;9.618;2023-02-13T00:21:06;8.30;99.90
15355;DHT22;7777;52.254;9.618;2023-02-13T00:23:35;8.30;99.90
15355;DHT22;7777;52.254;9.618;2023-02-13T00:26:05;8.30;99.90
15355;DHT22;7777;52.254;9.618;2023-02-13T00:28:33;8.20;99.90
15355;DHT22;7777;52.254;9.618;2023-02-13T00:31:07;8.20;99.90
15355;DHT22;7777;52.254;9.618;2023-02-13T00:33:34;8.30;99.90
15355;DHT22;7777;52.254;9.618;2023-02-13T00:36:22;8.30;99.90
15355;DHT22;7777;52.254;9.618;2023-02-13T00:38:49;8.30;99.90
15355;DHT22;7777;52.254;9.618;2023-02-13T00:41:15;8.30;99.90
15355;DHT22;7777;52.254;9.618;2023-02-13T00:43:45;8.20;99.90
15355;DHT22;7777;52.254;9.618;2023-02-13T00:46:11;8.30;99.90
15355;DHT22;7777;52.254;9.618;2023-02-13T00:48:37;8.30;99.90
15355;DHT22;7777;52.254;9.618;2023-02-13T00:51:04;8.20;99.90
15355;DHT22;7777;52.254;9.618;2023-02-13T00:53:30;8.20;99.90
15355;DHT22;7777;52.254;9.618;2023-02-13T00:55:56;8.30;99.90
15355;DHT22;7777;52.254;9.618;2023-02-13T00:58:22;8.20;99.90
15355;DHT22;7777;52.254;9.618;2023-02-13T01:00:48;8.20;99.90
15355;DHT22;7777;52.254;9.618;2023-02-13T01:03:16;8.20;99.90
15355;DHT22;7777;52.254;9.618;2023-02-13T01:05:44;8.30;99.90
15355;DHT22;7777;52.254;9.618;2023-02-13T01:08:11;8.20;99.90
15355;DHT22;7777;52.254;9.618;2023-02-13T01:10:38;8.20;99.90
15355;DHT22;7777;52.254;9.618;2023-02-13T01:13:06;8.30;99.90
15355;DHT22;7777;52.254;9.618;2023-02-13T01:15:33;8.20;99.90
15355;DHT22;7777;52.254;9.618;2023-02-13T01:17:59;8.20;99.90
15355;DHT22;7777;52.254;9.618;2023-02-13T01:20:26;8.20;99.90
15355;DHT22;7777;52.254;9.618;2023-02-13T01:22:52;8.20;99.90
15355;DHT22;7777;52.254;9.618;2023-02-13T01:25:18;8.30;99.90
15355;DHT22;7777;52.254;9.618;2023-02-13T01:27:44;8.20;99.90
15355;DHT22;7777;52.254;9.618;2023-02-13T01:30:12;8.30;99.90
15355;DHT22;7777;52.254;9.618;2023-02-13T01:32:40;8.30;99.90
15355;DHT22;7777;52.254;9.618;2023-02-13T01:35:06;8.30;99.90
15355;DHT22;7777;52.254;9.618;2023-02-13T01:37:33;8.30;99.90
15355;DHT22;7777;52.254;9.618;2023-02-13T01:39:59;8.30;99.90
15355;DHT22;7777;52.254;9.618;2023-02-13T01:42:27;8.30;99.90
15355;DHT22;7777;52.254;9.618;2023-02-13T01:45:01;8.30;99.90
15355;DHT22;7777;52.254;9.618;2023-02-13T01:47:59;8.30;99.90
15355;DHT22;7777;52.254;9.618;2023-02-13T01:50:38;8.30;99.90
15355;DHT22;7777;52.254;9.618;2023-02-13T01:53:11;8.40;99.90
15355;DHT22;7777;52.254;9.618;2023-02-13T01:55:48;8.30;99.90
15355;DHT22;7777;52.254;9.618;2023-02-13T01:58:19;8.40;99.90
15355;DHT22;7777;52.254;9.618;2023-02-13T02:00:47;8.40;99.90
15355;DHT22;7777;52.254;9.618;2023-02-13T02:03:38;8.40;99.90
15355;DHT22;7777;52.254;9.618;2023-02-13T02:06:09;8.40;99.90
15355;DHT22;7777;52.254;9.618;2023-02-13T02:08:39;8.40;99.90
15355;DHT22;7777;52.254;9.618;2023-02-13T02:11:10;8.40;99.90
15355;DHT22;7777;52.254;9.618;2023-02-13T02:13:42;8.40;99.90
15355;DHT22;7777;52.254;9.618;2023-02-13T02:16:09;8.40;99.90
15355;DHT22;7777;52.254;9.618;2023-02-13T02:18:35;8.40;99.90
15355;DHT22;7777;52.254;9.618;2023-02-13T02:21:29;8.40;99.90
15355;DHT22;7777;52.254;9.618;2023-02-13T02:39:21;8.40;99.90
15355;DHT22;7777;52.254;9.618;2023-02-13T02:45:09;8.40;99.90
15355;DHT22;7777;52.254;9.618;2023-02-13T02:57:15;8.40;99.90
15355;DHT22;7777;52.254;9.618;2023-02-13T02:59:48;8.40;99.90
15355;DHT22;7777;52.254;9.618;2023-02-13T03:02:33;8.40;99.90
15355;DHT22;7777;52.254;9.618;2023-02-13T03:05:26;8.40;99.90
15355;DHT22;7777;52.254;9.618;2023-02-13T03:08:14;8.40;99.90
15355;DHT22;7777;52.254;9.618;2023-02-13T03:10:40;8.40;99.90
15355;DHT22;7777;52.254;9.618;2023-02-13T03:16:15;8.40;99.90
15355;DHT22;7777;52.254;9.618;2023-02-13T03:19:02;8.30;99.90
15355;DHT22;7777;52.254;9.618;2023-02-13T03:21:52;8.30;99.90
15355;DHT22;7777;52.254;9.618;2023-02-13T03:27:54;8.30;99.90
15355;DHT22;7777;52.254;9.618;2023-02-13T03:36:28;8.30;99.90
15355;DHT22;7777;52.254;9.618;2023-02-13T03:39:22;8.30;99.90
15355;DHT22;7777;52.254;9.618;2023-02-13T03:45:22;8.30;99.90
15355;DHT22;7777;52.254;9.618;2023-02-13T03:48:11;8.30;99.90
15355;DHT22;7777;52.254;9.618;2023-02-13T03:51:01;8.30;99.90
15355;DHT22;7777;52.254;9.618;2023-02-13T03:53:30;8.20;99.90
15355;DHT22;7777;52.254;9.618;2023-02-13T03:55:58;8.20;99.90
15355;DHT22;7777;52.254;9.618;2023-02-13T03:58:48;8.30;99.90
15355;DHT22;7777;52.254;9.618;2023-02-13T04:01:36;8.20;99.90
15355;DHT22;7777;52.254;9.618;2023-02-13T04:06:46;8.20;99.90
15355;DHT22;7777;52.254;9.618;2023-02-13T04:09:15;8.20;99.90
15355;DHT22;7777;52.254;9.618;2023-02-13T04:14:37;8.20;99.90
15355;DHT22;7777;52.254;9.618;2023-02-13T04:17:12;8.20;99.90
15355;DHT22;7777;52.254;9.618;2023-02-13T04:19:42;8.20;99.90
15355;DHT22;7777;52.254;9.618;2023-02-13T04:22:10;8.20;99.90
15355;DHT22;7777;52.254;9.618;2023-02-13T04:24:37;8.20;99.90
15355;DHT22;7777;52.254;9.618;2023-02-13T04:27:02;8.20;99.90
15355;DHT22;7777;52.254;9.618;2023-02-13T04:29:28;8.30;99.90
15355;DHT22;7777;52.254;9.618;2023-02-13T04:31:54;8.20;99.90
15355;DHT22;7777;52.254;9.618;2023-02-13T04:34:20;8.20;99.90
15355;DHT22;7777;52.254;9.618;2023-02-13T04:36:46;8.20;99.90
15355;DHT22;7777;52.254;9.618;2023-02-13T04:39:12;8.20;99.90
15355;DHT22;7777;52.254;9.618;2023-02-13T04:41:38;8.20;99.90
15355;DHT22;7777;52.254;9.618;2023-02-13T04:44:03;8.20;99.90
15355;DHT22;7777;52.254;9.618;2023-02-13T04:46:29;8.20;99.90
15355;DHT22;7777;52.254;9.618;2023-02-13T04:48:55;8.10;99.90
15355;DHT22;7777;52.254;9.618;2023-02-13T04:51:21;8.10;99.90
15355;DHT22;7777;52.254;9.618;2023-02-13T04:53:46;8.10;99.90
15355;DHT22;7777;52.254;9.618;2023-02-13T04:56:12;8.10;99.90
15355;DHT22;7777;52.254;9.618;2023-02-13T04:58:38;8.10;99.90
15355;DHT22;7777;52.254;9.618;2023-02-13T05:01:11;8.20;99.90
15355;DHT22;7777;52.254;9.618;2023-02-13T05:03:38;8.20;99.90
15355;DHT22;7777;52.254;9.618;2023-02-13T05:06:03;8.10;99.90
15355;DHT22;7777;52.254;9.618;2023-02-13T05:08:29;8.10;99.90
15355;DHT22;7777;52.254;9.618;2023-02-13T05:10:55;8.10;99.90
15355;DHT22;7777;52.254;9.618;2023-02-13T05:13:21;8.10;99.90
15355;DHT22;7777;52.254;9.618;2023-02-13T05:15:47;8.10;99.90
15355;DHT22;7777;52.254;9.618;2023-02-13T05:18:13;8.10;99.90
15355;DHT22;7777;52.254;9.618;2023-02-13T05:20:41;8.10;99.90
15355;DHT22;7777;52.254;9.618;2023-02-13T05:23:12;8.10;99.90
15355;DHT22;7777;52.254;9.618;2023-02-13T05:25:48;8.10;99.90
15355;DHT22;7777;52.254;9.618;2023-02-13T05:28:15;8.10;99.90
15355;DHT22;7777;52.254;9.618;2023-02-13T05:30:59;8.10;99.90
15355;DHT22;7777;52.254;9.618;2023-02-13T05:33:26;8.10;99.90
15355;DHT22;7777;52.254;9.618;2023-02-13T05:35:51;8.00;99.90
15355;DHT22;7777;52.254;9.618;2023-02-13T05:38:17;8.00;99.90
15355;DHT22;7777;52.254;9.618;2023-02-13T05:40:43;8.00;99.90
15355;DHT22;7777;52.254;9.618;2023-02-13T05:43:09;8.00;99.90
15355;DHT22;7777;52.254;9.618;2023-02-13T05:45:35;8.00;99.90
15355;DHT22;7777;52.254;9.618;2023-02-13T05:48:00;8.00;99.90
15355;DHT22;7777;52.254;9.618;2023-02-13T05:50:26;8.00;99.90
15355;DHT22;7777;52.254;9.618;2023-02-13T05:52:52;8.00;99.90
15355;DHT22;7777;52.254;9.618;2023-02-13T05:55:17;8.00;99.90
15355;DHT22;7777;52.254;9.618;2023-02-13T05:57:43;8.00;99.90
15355;DHT22;7777;52.254;9.618;2023-02-13T06:00:09;8.00;99.90
15355;DHT22;7777;52.254;9.618;2023-02-13T06:02:35;8.00;99.90
15355;DHT22;7777;52.254;9.618;2023-02-13T06:05:01;8.00;99.90
15355;DHT22;7777;52.254;9.618;2023-02-13T06:07:27;8.00;99.90
15355;DHT22;7777;52.254;9.618;2023-02-13T06:09:52;8.00;99.90
15355;DHT22;7777;52.254;9.618;2023-02-13T06:12:18;8.00;99.90
15355;DHT22;7777;52.254;9.618;2023-02-13T06:14:44;8.00;99.90
15355;DHT22;7777;52.254;9.618;2023-02-13T06:17:09;8.00;99.90
15355;DHT22;7777;52.254;9.618;2023-02-13T06:19:35;8.00;99.90
15355;DHT22;7777;52.254;9.618;2023-02-13T06:22:01;8.00;99.90
15355;DHT22;7777;52.254;9.618;2023-02-13T06:24:27;7.90;99.90
15355;DHT22;7777;52.254;9.618;2023-02-13T06:26:52;8.00;99.90
15355;DHT22;7777;52.254;9.618;2023-02-13T06:29:18;8.00;99.90
15355;DHT22;7777;52.254;9.618;2023-02-13T06:31:44;8.00;99.90
15355;DHT22;7777;52.254;9.618;2023-02-13T06:34:10;8.00;99.90
15355;DHT22;7777;52.254;9.618;2023-02-13T06:36:35;7.90;99.90
15355;DHT22;7777;52.254;9.618;2023-02-13T06:39:03;7.90;99.90
15355;DHT22;7777;52.254;9.618;2023-02-13T06:41:29;7.90;99.90
15355;DHT22;7777;52.254;9.618;2023-02-13T06:43:55;7.90;99.90
15355;DHT22;7777;52.254;9.618;2023-02-13T06:46:20;8.00;99.90
15355;DHT22;7777;52.254;9.618;2023-02-13T06:48:46;8.00;99.90
15355;DHT22;7777;52.254;9.618;2023-02-13T06:51:12;7.90;99.90
15355;DHT22;7777;52.254;9.618;2023-02-13T06:53:38;7.90;99.90
15355;DHT22;7777;52.254;9.618;2023-02-13T06:56:04;7.90;99.90
15355;DHT22;7777;52.254;9.618;2023-02-13T06:58:31;7.90;99.90
15355;DHT22;7777;52.254;9.618;2023-02-13T07:00:58;7.90;99.90
15355;DHT22;7777;52.254;9.618;2023-02-13T07:03:24;7.80;99.90
15355;DHT22;7777;52.254;9.618;2023-02-13T07:05:49;7.90;99.90
15355;DHT22;7777;52.254;9.618;2023-02-13T07:08:16;7.80;99.90
15355;DHT22;7777;52.254;9.618;2023-02-13T07:10:42;7.80;99.90
15355;DHT22;7777;52.254;9.618;2023-02-13T07:13:09;7.90;99.90
15355;DHT22;7777;52.254;9.618;2023-02-13T07:15:36;7.90;99.90
15355;DHT22;7777;52.254;9.618;2023-02-13T07:18:03;7.90;99.90
15355;DHT22;7777;52.254;9.618;2023-02-13T07:20:29;7.90;99.90
15355;DHT22;7777;52.254;9.618;2023-02-13T07:23:03;7.80;99.90
15355;DHT22;7777;52.254;9.618;2023-02-13T07:25:30;7.90;99.90
15355;DHT22;7777;52.254;9.618;2023-02-13T07:28:04;7.80;99.90
15355;DHT22;7777;52.254;9.618;2023-02-13T07:30:31;7.80;99.90
15355;DHT22;7777;52.254;9.618;2023-02-13T07:33:01;7.80;99.90
15355;DHT22;7777;52.254;9.618;2023-02-13T07:35:28;7.80;99.90
15355;DHT22;7777;52.254;9.618;2023-02-13T07:37:54;7.80;99.90
15355;DHT22;7777;52.254;9.618;2023-02-13T07:40:20;7.80;99.90
15355;DHT22;7777;52.254;9.618;2023-02-13T07:42:46;7.80;99.90
15355;DHT22;7777;52.254;9.618;2023-02-13T07:45:12;7.80;99.90
15355;DHT22;7777;52.254;9.618;2023-02-13T07:47:39;7.80;99.90
15355;DHT22;7777;52.254;9.618;2023-02-13T07:50:06;7.80;99.90
15355;DHT22;7777;52.254;9.618;2023-02-13T07:52:32;7.80;99.90
15355;DHT22;7777;52.254;9.618;2023-02-13T07:54:58;7.80;99.90
15355;DHT22;7777;52.254;9.618;2023-02-13T07:57:24;7.80;99.90
15355;DHT22;7777;52.254;9.618;2023-02-13T07:59:50;7.80;99.90
15355;DHT22;7777;52.254;9.618;2023-02-13T08:02:16;7.70;99.90
15355;DHT22;7777;52.254;9.618;2023-02-13T08:04:42;7.80;99.90
15355;DHT22;7777;52.254;9.618;2023-02-13T08:07:11;7.80;99.90
15355;DHT22;7777;52.254;9.618;2023-02-13T08:09:38;7.70;99.90
15355;DHT22;7777;52.254;9.618;2023-02-13T08:12:22;7.60;99.90
15355;DHT22;7777;52.254;9.618;2023-02-13T08:14:48;7.80;99.90
15355;DHT22;7777;52.254;9.618;2023-02-13T08:17:14;7.70;99.90
15355;DHT22;7777;52.254;9.618;2023-02-13T08:19:39;7.70;99.90
15355;DHT22;7777;52.254;9.618;2023-02-13T08:22:05;7.70;99.90
15355;DHT22;7777;52.254;9.618;2023-02-13T08:24:31;7.70;99.90
15355;DHT22;7777;52.254;9.618;2023-02-13T08:26:57;7.70;99.90
15355;DHT22;7777;52.254;9.618;2023-02-13T08:29:23;7.70;99.90
15355;DHT22;7777;52.254;9.618;2023-02-13T08:31:49;7.70;99.90
15355;DHT22;7777;52.254;9.618;2023-02-13T08:34:15;7.70;99.90
15355;DHT22;7777;52.254;9.618;2023-02-13T08:36:40;7.70;99.90
15355;DHT22;7777;52.254;9.618;2023-02-13T08:39:08;7.70;99.90
15355;DHT22;7777;52.254;9.618;2023-02-13T08:41:35;7.70;99.90
15355;DHT22;7777;52.254;9.618;2023-02-13T08:44:00;7.80;99.90
15355;DHT22;7777;52.254;9.618;2023-02-13T08:46:26;7.70;99.90
15355;DHT22;7777;52.254;9.618;2023-02-13T08:48:54;7.80;99.90
15355;DHT22;7777;52.254;9.618;2023-02-13T08:51:20;7.70;99.90
15355;DHT22;7777;52.254;9.618;2023-02-13T08:53:45;7.80;99.90
15355;DHT22;7777;52.254;9.618;2023-02-13T08:56:11;7.80;99.90
15355;DHT22;7777;52.254;9.618;2023-02-13T08:58:37;7.80;99.90
15355;DHT22;7777;52.254;9.618;2023-02-13T09:01:07;7.80;99.90
15355;DHT22;7777;52.254;9.618;2023-02-13T09:03:33;7.80;99.90
15355;DHT22;7777;52.254;9.618;2023-02-13T09:06:00;7.80;99.90
15355;DHT22;7777;52.254;9.618;2023-02-13T09:08:28;7.80;99.90
15355;DHT22;7777;52.254;9.618;2023-02-13T09:11:02;7.80;99.90
15355;DHT22;7777;52.254;9.618;2023-02-13T09:13:30;7.80;99.90
15355;DHT22;7777;52.254;9.618;2023-02-13T09:16:02;7.80;99.90
15355;DHT22;7777;52.254;9.618;2023-02-13T09:18:29;7.90;99.90
15355;DHT22;7777;52.254;9.618;2023-02-13T09:21:03;7.90;99.90
15355;DHT22;7777;52.254;9.618;2023-02-13T09:23:36;7.90;99.90
15355;DHT22;7777;52.254;9.618;2023-02-13T09:26:04;7.90;99.90
15355;DHT22;7777;52.254;9.618;2023-02-13T09:28:33;8.00;99.90
15355;DHT22;7777;52.254;9.618;2023-02-13T09:31:03;7.90;99.90
15355;DHT22;7777;52.254;9.618;2023-02-13T09:33:32;7.90;99.90
15355;DHT22;7777;52.254;9.618;2023-02-13T09:36:06;8.00;99.90
15355;DHT22;7777;52.254;9.618;2023-02-13T09:38:34;8.00;99.90
15355;DHT22;7777;52.254;9.618;2023-02-13T09:41:05;8.00;99.90
15355;DHT22;7777;52.254;9.618;2023-02-13T09:43:45;8.10;99.90
15355;DHT22;7777;52.254;9.618;2023-02-13T09:46:19;8.10;99.90
15355;DHT22;7777;52.254;9.618;2023-02-13T09:48:50;8.10;99.90
15355;DHT22;7777;52.254;9.618;2023-02-13T09:51:19;8.20;99.90
15355;DHT22;7777;52.254;9.618;2023-02-13T09:53:54;8.20;99.90
15355;DHT22;7777;52.254;9.618;2023-02-13T10:14:31;8.40;99.90
15355;DHT22;7777;52.254;9.618;2023-02-13T10:16:42;8.40;99.90
15355;DHT22;7777;52.254;9.618;2023-02-13T10:21:55;8.40;99.90
15355;DHT22;7777;52.254;9.618;2023-02-13T10:30:06;8.40;99.90
15355;DHT22;7777;52.254;9.618;2023-02-13T10:35:20;8.50;99.90
15355;DHT22;7777;52.254;9.618;2023-02-13T10:37:49;8.40;99.90
15355;DHT22;7777;52.254;9.618;2023-02-13T10:40:17;8.50;99.90
15355;DHT22;7777;52.254;9.618;2023-02-13T10:42:46;8.40;99.90
15355;DHT22;7777;52.254;9.618;2023-02-13T10:48:26;8.40;99.90
15355;DHT22;7777;52.254;9.618;2023-02-13T10:51:10;8.40;99.90
15355;DHT22;7777;52.254;9.618;2023-02-13T10:57:30;8.40;99.90
15355;DHT22;7777;52.254;9.618;2023-02-13T11:02:49;8.50;99.90
15355;DHT22;7777;52.254;9.618;2023-02-13T11:05:31;8.50;99.90
15355;DHT22;7777;52.254;9.618;2023-02-13T11:08:00;8.50;99.90
15355;DHT22;7777;52.254;9.618;2023-02-13T11:10:27;8.50;99.90
15355;DHT22;7777;52.254;9.618;2023-02-13T11:12:53;8.50;99.90
15355;DHT22;7777;52.254;9.618;2023-02-13T11:15:29;8.50;99.90
15355;DHT22;7777;52.254;9.618;2023-02-13T11:18:17;8.60;99.90
15355;DHT22;7777;52.254;9.618;2023-02-13T11:20:45;8.50;99.90
15355;DHT22;7777;52.254;9.618;2023-02-13T11:26:01;8.50;99.90
15355;DHT22;7777;52.254;9.618;2023-02-13T11:28:31;8.60;99.90
15355;DHT22;7777;52.254;9.618;2023-02-13T11:33:39;8.60;99.90
15355;DHT22;7777;52.254;9.618;2023-02-13T11:36:08;8.70;99.90
15355;DHT22;7777;52.254;9.618;2023-02-13T11:38:35;8.70;99.90
15355;DHT22;7777;52.254;9.618;2023-02-13T11:41:10;8.70;99.90
15355;DHT22;7777;52.254;9.618;2023-02-13T11:43:47;8.70;99.90
15355;DHT22;7777;52.254;9.618;2023-02-13T11:46:26;8.80;99.90
15355;DHT22;7777;52.254;9.618;2023-02-13T11:49:14;8.80;99.90
15355;DHT22;7777;52.254;9.618;2023-02-13T11:51:47;8.90;99.90
15355;DHT22;7777;52.254;9.618;2023-02-13T11:56:59;8.90;99.90
15355;DHT22;7777;52.254;9.618;2023-02-13T11:59:45;9.00;99.90
15355;DHT22;7777;52.254;9.618;2023-02-13T12:02:29;9.00;99.90
15355;DHT22;7777;52.254;9.618;2023-02-13T12:05:19;9.10;99.90
15355;DHT22;7777;52.254;9.618;2023-02-13T12:07:46;9.10;99.90
15355;DHT22;7777;52.254;9.618;2023-02-13T12:10:25;9.20;99.90
15355;DHT22;7777;52.254;9.618;2023-02-13T12:13:14;9.20;99.90
15355;DHT22;7777;52.254;9.618;2023-02-13T12:15:48;9.30;99.90
15355;DHT22;7777;52.254;9.618;2023-02-13T12:18:41;9.30;99.90
15355;DHT22;7777;52.254;9.618;2023-02-13T12:21:26;9.30;99.90
15355;DHT22;7777;52.254;9.618;2023-02-13T12:24:04;9.40;99.90
15355;DHT22;7777;52.254;9.618;2023-02-13T12:26:47;9.40;99.90
15355;DHT22;7777;52.254;9.618;2023-02-13T12:29:36;9.50;99.90
15355;DHT22;7777;52.254;9.618;2023-02-13T12:35:44;9.50;99.90
15355;DHT22;7777;52.254;9.618;2023-02-13T12:41:35;9.60;99.90
15355;DHT22;7777;52.254;9.618;2023-02-13T12:50:55;9.60;99.90
15355;DHT22;7777;52.254;9.618;2023-02-13T13:14:18;9.80;99.90
15355;DHT22;7777;52.254;9.618;2023-02-13T13:17:10;9.90;99.90
15355;DHT22;7777;52.254;9.618;2023-02-13T13:22:36;9.90;99.90
15355;DHT22;7777;52.254;9.618;2023-02-13T13:25:19;10.00;99.90
15355;DHT22;7777;52.254;9.618;2023-02-13T13:27:50;10.00;99.90
15355;DHT22;7777;52.254;9.618;2023-02-13T13:30:25;10.00;99.90
15355;DHT22;7777;52.254;9.618;2023-02-13T13:33:05;10.00;99.90
15355;DHT22;7777;52.254;9.618;2023-02-13T13:35:38;10.00;99.90
15355;DHT22;7777;52.254;9.618;2023-02-13T13:38:15;10.00;99.90
15355;DHT22;7777;52.254;9.618;2023-02-13T13:43:26;10.00;99.90
15355;DHT22;7777;52.254;9.618;2023-02-13T13:47:04;10.00;99.90
15355;DHT22;7777;52.254;9.618;2023-02-13T13:49:27;10.00;99.90
15355;DHT22;7777;52.254;9.618;2023-02-13T13:54:57;10.10;99.90
15355;DHT22;7777;52.254;9.618;2023-02-13T14:02:41;10.00;99.90
15355;DHT22;7777;52.254;9.618;2023-02-13T14:05:30;10.00;99.90
15355;DHT22;7777;52.254;9.618;2023-02-13T14:08:03;10.00;99.90
15355;DHT22;7777;52.254;9.618;2023-02-13T14:13:32;10.00;99.90
15355;DHT22;7777;52.254;9.618;2023-02-13T14:16:04;9.90;99.90
15355;DHT22;7777;52.254;9.618;2023-02-13T14:18:31;10.00;99.90
15355;DHT22;7777;52.254;9.618;2023-02-13T14:21:02;10.00;99.90
15355;DHT22;7777;52.254;9.618;2023-02-13T14:36:36;9.80;99.90
15355;DHT22;7777;52.254;9.618;2023-02-13T14:39:05;9.80;99.90
15355;DHT22;7777;52.254;9.618;2023-02-13T14:44:44;9.80;99.90
15355;DHT22;7777;52.254;9.618;2023-02-13T14:47:34;9.80;99.90
15355;DHT22;7777;52.254;9.618;2023-02-13T14:50:05;9.80;99.90
15355;DHT22;7777;52.254;9.618;2023-02-13T14:52:37;9.80;99.90
15355;DHT22;7777;52.254;9.618;2023-02-13T14:55:14;9.70;99.90
15355;DHT22;7777;52.254;9.618;2023-02-13T14:57:44;9.70;99.90
15355;DHT22;7777;52.254;9.618;2023-02-13T15:02:57;9.60;99.90
15355;DHT22;7777;52.254;9.618;2023-02-13T15:05:31;9.70;99.90
15355;DHT22;7777;52.254;9.618;2023-02-13T15:08:05;9.70;99.90
15355;DHT22;7777;52.254;9.618;2023-02-13T15:10:49;9.60;99.90
15355;DHT22;7777;52.254;9.618;2023-02-13T15:13:21;9.60;99.90
15355;DHT22;7777;52.254;9.618;2023-02-13T15:15:55;9.50;99.90
15355;DHT22;7777;52.254;9.618;2023-02-13T15:18:27;9.40;99.90
15355;DHT22;7777;52.254;9.618;2023-02-13T15:20:56;9.40;99.90
15355;DHT22;7777;52.254;9.618;2023-02-13T15:23:29;9.40;99.90
15355;DHT22;7777;52.254;9.618;2023-02-13T15:26:01;9.30;99.90
15355;DHT22;7777;52.254;9.618;2023-02-13T15:28:32;9.20;99.90
15355;DHT22;7777;52.254;9.618;2023-02-13T15:31:22;9.20;99.90
15355;DHT22;7777;52.254;9.618;2023-02-13T15:33:49;9.10;99.90
15355;DHT22;7777;52.254;9.618;2023-02-13T15:36:24;9.10;99.90
15355;DHT22;7777;52.254;9.618;2023-02-13T15:39:04;9.00;99.90
15355;DHT22;7777;52.254;9.618;2023-02-13T15:41:36;8.90;99.90
15355;DHT22;7777;52.254;9.618;2023-02-13T15:44:03;9.00;99.90
15355;DHT22;7777;52.254;9.618;2023-02-13T15:46:34;9.00;99.90
15355;DHT22;7777;52.254;9.618;2023-02-13T15:49:08;8.90;99.90
15355;DHT22;7777;52.254;9.618;2023-02-13T15:51:37;8.80;99.90
15355;DHT22;7777;52.254;9.618;2023-02-13T15:54:27;8.80;99.90
15355;DHT22;7777;52.254;9.618;2023-02-13T15:56:53;8.80;99.90
15355;DHT22;7777;52.254;9.618;2023-02-13T15:59:29;8.80;99.90
15355;DHT22;7777;52.254;9.618;2023-02-13T16:01:57;8.70;99.90
15355;DHT22;7777;52.254;9.618;2023-02-13T16:04:24;8.70;99.90
15355;DHT22;7777;52.254;9.618;2023-02-13T16:06:52;8.60;99.90
15355;DHT22;7777;52.254;9.618;2023-02-13T16:09:32;8.60;99.90
15355;DHT22;7777;52.254;9.618;2023-02-13T16:12:22;8.50;99.90
15355;DHT22;7777;52.254;9.618;2023-02-13T16:17:32;8.40;99.90
15355;DHT22;7777;52.254;9.618;2023-02-13T16:23:03;8.30;99.90
15355;DHT22;7777;52.254;9.618;2023-02-13T16:25:33;8.20;99.90
15355;DHT22;7777;52.254;9.618;2023-02-13T16:28:23;8.10;99.90
15355;DHT22;7777;52.254;9.618;2023-02-13T16:30:56;8.00;99.90
15355;DHT22;7777;52.254;9.618;2023-02-13T16:33:28;8.00;99.90
15355;DHT22;7777;52.254;9.618;2023-02-13T16:35:57;7.90;99.90
15355;DHT22;7777;52.254;9.618;2023-02-13T16:38:34;7.80;99.90
15355;DHT22;7777;52.254;9.618;2023-02-13T16:44:03;7.60;99.90
15355;DHT22;7777;52.254;9.618;2023-02-13T16:46:38;7.60;99.90
15355;DHT22;7777;52.254;9.618;2023-02-13T16:49:20;7.50;99.90
15355;DHT22;7777;52.254;9.618;2023-02-13T16:51:59;7.40;99.90
15355;DHT22;7777;52.254;9.618;2023-02-13T16:54:36;7.30;99.90
15355;DHT22;7777;52.254;9.618;2023-02-13T16:57:27;7.20;99.90
15355;DHT22;7777;52.254;9.618;2023-02-13T17:00:06;7.10;99.90
15355;DHT22;7777;52.254;9.618;2023-02-13T17:02:45;7.00;99.90
15355;DHT22;7777;52.254;9.618;2023-02-13T17:05:26;6.80;99.90
15355;DHT22;7777;52.254;9.618;2023-02-13T17:07:54;6.80;99.90
15355;DHT22;7777;52.254;9.618;2023-02-13T17:15:44;6.50;99.90
15355;DHT22;7777;52.254;9.618;2023-02-13T17:18:11;6.40;99.90
15355;DHT22;7777;52.254;9.618;2023-02-13T17:20:40;6.40;99.90
15355;DHT22;7777;52.254;9.618;2023-02-13T17:23:13;6.20;99.90
15355;DHT22;7777;52.254;9.618;2023-02-13T17:25:42;6.20;99.90
15355;DHT22;7777;52.254;9.618;2023-02-13T17:28:18;6.10;99.90
15355;DHT22;7777;52.254;9.618;2023-02-13T17:30:50;6.10;99.90
15355;DHT22;7777;52.254;9.618;2023-02-13T17:33:24;6.00;99.90
15355;DHT22;7777;52.254;9.618;2023-02-13T17:35:51;5.90;99.90
15355;DHT22;7777;52.254;9.618;2023-02-13T17:38:18;5.80;99.90
15355;DHT22;7777;52.254;9.618;2023-02-13T17:40:44;5.70;99.90
15355;DHT22;7777;52.254;9.618;2023-02-13T17:43:13;5.70;99.90
15355;DHT22;7777;52.254;9.618;2023-02-13T17:45:40;5.70;99.90
15355;DHT22;7777;52.254;9.618;2023-02-13T17:48:06;5.60;99.90
15355;DHT22;7777;52.254;9.618;2023-02-13T17:50:33;5.50;99.90
15355;DHT22;7777;52.254;9.618;2023-02-13T17:53:04;5.40;99.90
15355;DHT22;7777;52.254;9.618;2023-02-13T17:55:33;5.40;99.90
15355;DHT22;7777;52.254;9.618;2023-02-13T17:57:59;5.40;99.90
15355;DHT22;7777;52.254;9.618;2023-02-13T18:00:28;5.30;99.90
15355;DHT22;7777;52.254;9.618;2023-02-13T18:02:56;5.20;99.90
15355;DHT22;7777;52.254;9.618;2023-02-13T18:05:23;5.20;99.90
15355;DHT22;7777;52.254;9.618;2023-02-13T18:07:49;5.10;99.90
15355;DHT22;7777;52.254;9.618;2023-02-13T18:10:19;5.00;99.90
15355;DHT22;7777;52.254;9.618;2023-02-13T18:12:47;5.00;99.90
15355;DHT22;7777;52.254;9.618;2023-02-13T18:15:14;4.90;99.90
15355;DHT22;7777;52.254;9.618;2023-02-13T18:17:41;4.90;99.90
15355;DHT22;7777;52.254;9.618;2023-02-13T18:20:09;4.80;99.90
15355;DHT22;7777;52.254;9.618;2023-02-13T18:22:38;4.80;99.90
15355;DHT22;7777;52.254;9.618;2023-02-13T18:25:06;4.70;99.90
15355;DHT22;7777;52.254;9.618;2023-02-13T18:27:33;4.60;99.90
15355;DHT22;7777;52.254;9.618;2023-02-13T18:29:58;4.60;99.90
15355;DHT22;7777;52.254;9.618;2023-02-13T18:32:24;4.60;99.90
15355;DHT22;7777;52.254;9.618;2023-02-13T18:34:50;4.50;99.90
15355;DHT22;7777;52.254;9.618;2023-02-13T18:37:17;4.50;99.90
15355;DHT22;7777;52.254;9.618;2023-02-13T18:39:43;4.50;99.90
15355;DHT22;7777;52.254;9.618;2023-02-13T18:42:09;4.50;99.90
15355;DHT22;7777;52.254;9.618;2023-02-13T18:44:38;4.50;99.90
15355;DHT22;7777;52.254;9.618;2023-02-13T18:47:04;4.30;99.90
15355;DHT22;7777;52.254;9.618;2023-02-13T18:49:30;4.30;99.90
15355;DHT22;7777;52.254;9.618;2023-02-13T18:51:56;4.30;99.90
15355;DHT22;7777;52.254;9.618;2023-02-13T18:54:22;4.20;99.90
15355;DHT22;7777;52.254;9.618;2023-02-13T18:56:48;4.20;99.90
15355;DHT22;7777;52.254;9.618;2023-02-13T18:59:14;4.20;99.90
15355;DHT22;7777;52.254;9.618;2023-02-13T19:01:40;4.10;99.90
15355;DHT22;7777;52.254;9.618;2023-02-13T19:04:06;4.00;99.90
15355;DHT22;7777;52.254;9.618;2023-02-13T19:06:32;4.00;99.90
15355;DHT22;7777;52.254;9.618;2023-02-13T19:08:58;3.90;99.90
15355;DHT22;7777;52.254;9.618;2023-02-13T19:11:25;3.90;99.90
15355;DHT22;7777;52.254;9.618;2023-02-13T19:13:56;3.90;99.90
15355;DHT22;7777;52.254;9.618;2023-02-13T19:16:24;3.90;99.90
15355;DHT22;7777;52.254;9.618;2023-02-13T19:18:52;3.80;99.90
15355;DHT22;7777;52.254;9.618;2023-02-13T19:21:20;3.80;99.90
15355;DHT22;7777;52.254;9.618;2023-02-13T19:23:47;3.80;99.90
15355;DHT22;7777;52.254;9.618;2023-02-13T19:26:18;3.70;99.90